sensor_id;sensor_type;location;lat;lon;timestamp;P1;durP1;ratioP1;P2;durP2;ratioP2
76576;SDS011;65441;44.748;37.600;2024-03-22T00:02:08;18.52;;;7.88;;
76576;SDS011;65441;44.748;37.600;2024-03-22T00:04:36;16.95;;;6.97;;
76576;SDS011;65441;44.748;37.600;2024-03-22T00:07:03;19.88;;;8.02;;
76576;SDS011;65441;44.748;37.600;2024-03-22T00:09:32;19.98;;;7.30;;
76576;SDS011;65441;44.748;37.600;2024-03-22T00:14:27;16.58;;;6.40;;
76576;SDS011;65441;44.748;37.600;2024-03-22T00:16:56;16.52;;;6.10;;
76576;SDS011;65441;44.748;37.600;2024-03-22T00:19:24;22.25;;;7.70;;
76576;SDS011;65441;44.748;37.600;2024-03-22T00:21:51;22.38;;;7.40;;
76576;SDS011;65441;44.748;37.600;2024-03-22T00:24:19;17.05;;;6.68;;
76576;SDS011;65441;44.748;37.600;2024-03-22T00:26:46;15.55;;;6.30;;
76576;SDS011;65441;44.748;37.600;2024-03-22T00:29:15;16.95;;;7.07;;
76576;SDS011;65441;44.748;37.600;2024-03-22T00:31:42;19.75;;;7.32;;
76576;SDS011;65441;44.748;37.600;2024-03-22T00:34:11;19.88;;;6.50;;
76576;SDS011;65441;44.748;37.600;2024-03-22T00:36:38;17.52;;;5.80;;
76576;SDS011;65441;44.748;37.600;2024-03-22T00:39:07;15.98;;;6.00;;
76576;SDS011;65441;44.748;37.600;2024-03-22T00:41:34;16.80;;;6.50;;
76576;SDS011;65441;44.748;37.600;2024-03-22T00:44:02;16.23;;;6.53;;
76576;SDS011;65441;44.748;37.600;2024-03-22T00:46:29;15.88;;;6.47;;
76576;SDS011;65441;44.748;37.600;2024-03-22T00:48:57;17.15;;;6.55;;
76576;SDS011;65441;44.748;37.600;2024-03-22T00:51:27;18.23;;;6.97;;
76576;SDS011;65441;44.748;37.600;2024-03-22T00:53:56;15.75;;;6.30;;
76576;SDS011;65441;44.748;37.600;2024-03-22T00:56:23;15.43;;;5.97;;
76576;SDS011;65441;44.748;37.600;2024-03-22T00:58:51;15.82;;;6.07;;
76576;SDS011;65441;44.748;37.600;2024-03-22T01:01:18;16.23;;;5.80;;
76576;SDS011;65441;44.748;37.600;2024-03-22T01:03:47;19.05;;;6.57;;
76576;SDS011;65441;44.748;37.600;2024-03-22T01:06:14;12.70;;;6.18;;
76576;SDS011;65441;44.748;37.600;2024-03-22T01:08:44;14.15;;;5.57;;
76576;SDS011;65441;44.748;37.600;2024-03-22T01:11:11;16.90;;;6.22;;
76576;SDS011;65441;44.748;37.600;2024-03-22T01:13:39;15.55;;;6.20;;
76576;SDS011;65441;44.748;37.600;2024-03-22T01:16:06;22.33;;;7.25;;
76576;SDS011;65441;44.748;37.600;2024-03-22T01:18:35;19.23;;;7.18;;
76576;SDS011;65441;44.748;37.600;2024-03-22T01:21:03;12.80;;;5.35;;
76576;SDS011;65441;44.748;37.600;2024-03-22T01:23:31;14.43;;;5.35;;
76576;SDS011;65441;44.748;37.600;2024-03-22T01:26:00;19.35;;;6.70;;
76576;SDS011;65441;44.748;37.600;2024-03-22T01:28:28;17.05;;;6.07;;
76576;SDS011;65441;44.748;37.600;2024-03-22T01:30:55;15.63;;;5.97;;
76576;SDS011;65441;44.748;37.600;2024-03-22T01:33:23;17.02;;;6.28;;
76576;SDS011;65441;44.748;37.600;2024-03-22T01:35:50;13.98;;;6.43;;
76576;SDS011;65441;44.748;37.600;2024-03-22T01:38:18;18.63;;;6.90;;
76576;SDS011;65441;44.748;37.600;2024-03-22T01:40:45;15.32;;;6.60;;
76576;SDS011;65441;44.748;37.600;2024-03-22T01:43:15;15.35;;;6.32;;
76576;SDS011;65441;44.748;37.600;2024-03-22T01:45:42;17.70;;;6.45;;
76576;SDS011;65441;44.748;37.600;2024-03-22T01:48:10;13.82;;;5.32;;
76576;SDS011;65441;44.748;37.600;2024-03-22T01:50:38;15.18;;;5.70;;
76576;SDS011;65441;44.748;37.600;2024-03-22T01:53:06;13.77;;;4.75;;
76576;SDS011;65441;44.748;37.600;2024-03-22T01:55:34;17.80;;;5.68;;
76576;SDS011;65441;44.748;37.600;2024-03-22T01:58:02;13.35;;;5.25;;
76576;SDS011;65441;44.748;37.600;2024-03-22T02:00:31;15.45;;;5.28;;
76576;SDS011;65441;44.748;37.600;2024-03-22T02:02:59;16.55;;;4.53;;
76576;SDS011;65441;44.748;37.600;2024-03-22T02:05:26;17.27;;;5.85;;
76576;SDS011;65441;44.748;37.600;2024-03-22T02:07:54;12.82;;;4.53;;
76576;SDS011;65441;44.748;37.600;2024-03-22T02:10:21;12.15;;;3.92;;
76576;SDS011;65441;44.748;37.600;2024-03-22T02:12:49;13.88;;;4.93;;
76576;SDS011;65441;44.748;37.600;2024-03-22T02:15:17;13.23;;;5.28;;
76576;SDS011;65441;44.748;37.600;2024-03-22T02:17:46;12.70;;;4.30;;
76576;SDS011;65441;44.748;37.600;2024-03-22T02:20:13;15.55;;;3.95;;
76576;SDS011;65441;44.748;37.600;2024-03-22T02:22:41;14.50;;;3.85;;
76576;SDS011;65441;44.748;37.600;2024-03-22T02:25:10;12.77;;;4.32;;
76576;SDS011;65441;44.748;37.600;2024-03-22T02:27:38;10.57;;;3.95;;
76576;SDS011;65441;44.748;37.600;2024-03-22T02:30:05;12.93;;;4.80;;
76576;SDS011;65441;44.748;37.600;2024-03-22T02:32:34;12.25;;;4.35;;
76576;SDS011;65441;44.748;37.600;2024-03-22T02:35:03;11.02;;;4.55;;
76576;SDS011;65441;44.748;37.600;2024-03-22T02:37:31;15.10;;;5.00;;
76576;SDS011;65441;44.748;37.600;2024-03-22T02:39:59;16.05;;;4.57;;
76576;SDS011;65441;44.748;37.600;2024-03-22T02:42:28;14.93;;;4.70;;
76576;SDS011;65441;44.748;37.600;2024-03-22T02:44:55;16.23;;;4.60;;
76576;SDS011;65441;44.748;37.600;2024-03-22T02:47:23;9.80;;;4.00;;
76576;SDS011;65441;44.748;37.600;2024-03-22T02:49:50;10.20;;;3.88;;
76576;SDS011;65441;44.748;37.600;2024-03-22T02:52:18;11.23;;;4.30;;
76576;SDS011;65441;44.748;37.600;2024-03-22T02:54:45;14.70;;;4.95;;
76576;SDS011;65441;44.748;37.600;2024-03-22T02:57:13;13.23;;;4.95;;
76576;SDS011;65441;44.748;37.600;2024-03-22T02:59:42;15.70;;;4.13;;
76576;SDS011;65441;44.748;37.600;2024-03-22T03:02:10;13.38;;;4.28;;
76576;SDS011;65441;44.748;37.600;2024-03-22T03:04:39;11.75;;;4.30;;
76576;SDS011;65441;44.748;37.600;2024-03-22T03:07:07;10.10;;;3.83;;
76576;SDS011;65441;44.748;37.600;2024-03-22T03:09:34;11.88;;;4.43;;
76576;SDS011;65441;44.748;37.600;2024-03-22T03:12:02;14.73;;;5.40;;
76576;SDS011;65441;44.748;37.600;2024-03-22T03:14:30;15.18;;;4.95;;
76576;SDS011;65441;44.748;37.600;2024-03-22T03:16:59;14.07;;;4.90;;
76576;SDS011;65441;44.748;37.600;2024-03-22T03:19:26;12.00;;;4.85;;
76576;SDS011;65441;44.748;37.600;2024-03-22T03:21:55;14.02;;;5.07;;
76576;SDS011;65441;44.748;37.600;2024-03-22T03:24:22;12.02;;;4.15;;
76576;SDS011;65441;44.748;37.600;2024-03-22T03:26:50;13.05;;;4.57;;
76576;SDS011;65441;44.748;37.600;2024-03-22T03:29:17;13.48;;;4.22;;
76576;SDS011;65441;44.748;37.600;2024-03-22T03:31:45;15.35;;;5.25;;
76576;SDS011;65441;44.748;37.600;2024-03-22T03:34:13;11.98;;;4.57;;
76576;SDS011;65441;44.748;37.600;2024-03-22T03:36:41;13.68;;;4.75;;
76576;SDS011;65441;44.748;37.600;2024-03-22T03:39:08;11.68;;;4.78;;
76576;SDS011;65441;44.748;37.600;2024-03-22T03:41:37;13.43;;;3.75;;
76576;SDS011;65441;44.748;37.600;2024-03-22T03:44:04;11.15;;;4.15;;
76576;SDS011;65441;44.748;37.600;2024-03-22T03:46:32;12.25;;;3.60;;
76576;SDS011;65441;44.748;37.600;2024-03-22T03:48:59;14.00;;;3.65;;
76576;SDS011;65441;44.748;37.600;2024-03-22T03:51:29;12.35;;;4.03;;
76576;SDS011;65441;44.748;37.600;2024-03-22T03:53:56;13.65;;;3.90;;
76576;SDS011;65441;44.748;37.600;2024-03-22T03:56:24;13.45;;;4.32;;
76576;SDS011;65441;44.748;37.600;2024-03-22T03:58:51;15.45;;;3.90;;
76576;SDS011;65441;44.748;37.600;2024-03-22T04:01:21;9.90;;;4.10;;
76576;SDS011;65441;44.748;37.600;2024-03-22T04:03:48;11.55;;;4.03;;
76576;SDS011;65441;44.748;37.600;2024-03-22T04:06:17;9.98;;;3.88;;
76576;SDS011;65441;44.748;37.600;2024-03-22T04:08:45;11.98;;;3.95;;
76576;SDS011;65441;44.748;37.600;2024-03-22T04:11:13;11.48;;;3.78;;
76576;SDS011;65441;44.748;37.600;2024-03-22T04:13:40;10.50;;;3.78;;
76576;SDS011;65441;44.748;37.600;2024-03-22T04:16:09;10.32;;;3.65;;
76576;SDS011;65441;44.748;37.600;2024-03-22T04:18:36;13.18;;;3.55;;
76576;SDS011;65441;44.748;37.600;2024-03-22T04:21:04;12.05;;;3.88;;
76576;SDS011;65441;44.748;37.600;2024-03-22T04:23:31;8.88;;;3.53;;
76576;SDS011;65441;44.748;37.600;2024-03-22T04:26:01;10.27;;;3.78;;
76576;SDS011;65441;44.748;37.600;2024-03-22T04:28:29;9.80;;;3.70;;
76576;SDS011;65441;44.748;37.600;2024-03-22T04:30:58;8.25;;;3.30;;
76576;SDS011;65441;44.748;37.600;2024-03-22T04:33:26;10.82;;;3.28;;
76576;SDS011;65441;44.748;37.600;2024-03-22T04:35:54;14.15;;;4.03;;
76576;SDS011;65441;44.748;37.600;2024-03-22T04:38:22;11.68;;;3.47;;
76576;SDS011;65441;44.748;37.600;2024-03-22T04:40:50;11.20;;;3.78;;
76576;SDS011;65441;44.748;37.600;2024-03-22T04:43:19;11.00;;;4.03;;
76576;SDS011;65441;44.748;37.600;2024-03-22T04:45:47;11.02;;;3.47;;
76576;SDS011;65441;44.748;37.600;2024-03-22T04:48:17;8.43;;;3.55;;
76576;SDS011;65441;44.748;37.600;2024-03-22T04:53:13;9.98;;;3.67;;
76576;SDS011;65441;44.748;37.600;2024-03-22T04:55:40;15.80;;;4.43;;
76576;SDS011;65441;44.748;37.600;2024-03-22T04:58:12;7.68;;;2.83;;
76576;SDS011;65441;44.748;37.600;2024-03-22T05:00:41;10.95;;;3.85;;
76576;SDS011;65441;44.748;37.600;2024-03-22T05:03:10;8.30;;;3.03;;
76576;SDS011;65441;44.748;37.600;2024-03-22T05:05:37;11.77;;;4.15;;
76576;SDS011;65441;44.748;37.600;2024-03-22T05:08:06;9.40;;;3.78;;
76576;SDS011;65441;44.748;37.600;2024-03-22T05:10:34;12.60;;;3.90;;
76576;SDS011;65441;44.748;37.600;2024-03-22T05:13:02;10.57;;;3.70;;
76576;SDS011;65441;44.748;37.600;2024-03-22T05:15:29;10.50;;;3.33;;
76576;SDS011;65441;44.748;37.600;2024-03-22T05:17:59;14.98;;;4.68;;
76576;SDS011;65441;44.748;37.600;2024-03-22T05:20:26;13.57;;;4.55;;
76576;SDS011;65441;44.748;37.600;2024-03-22T05:22:55;11.18;;;4.50;;
76576;SDS011;65441;44.748;37.600;2024-03-22T05:25:22;9.68;;;3.88;;
76576;SDS011;65441;44.748;37.600;2024-03-22T05:27:50;10.35;;;3.70;;
76576;SDS011;65441;44.748;37.600;2024-03-22T05:32:45;10.90;;;3.70;;
76576;SDS011;65441;44.748;37.600;2024-03-22T05:35:14;7.57;;;3.08;;
76576;SDS011;65441;44.748;37.600;2024-03-22T05:37:42;13.07;;;3.78;;
76576;SDS011;65441;44.748;37.600;2024-03-22T05:40:10;10.48;;;3.63;;
76576;SDS011;65441;44.748;37.600;2024-03-22T05:42:39;10.65;;;3.95;;
76576;SDS011;65441;44.748;37.600;2024-03-22T05:45:06;8.90;;;3.25;;
76576;SDS011;65441;44.748;37.600;2024-03-22T05:47:34;10.02;;;3.35;;
76576;SDS011;65441;44.748;37.600;2024-03-22T05:50:03;9.80;;;3.08;;
76576;SDS011;65441;44.748;37.600;2024-03-22T05:52:35;12.48;;;3.42;;
76576;SDS011;65441;44.748;37.600;2024-03-22T05:55:03;9.13;;;3.05;;
76576;SDS011;65441;44.748;37.600;2024-03-22T05:57:32;8.07;;;3.15;;
76576;SDS011;65441;44.748;37.600;2024-03-22T05:59:59;7.68;;;3.20;;
76576;SDS011;65441;44.748;37.600;2024-03-22T06:02:28;10.63;;;3.47;;
76576;SDS011;65441;44.748;37.600;2024-03-22T06:04:55;10.75;;;3.60;;
76576;SDS011;65441;44.748;37.600;2024-03-22T06:07:23;7.45;;;3.33;;
76576;SDS011;65441;44.748;37.600;2024-03-22T06:09:53;8.75;;;2.83;;
76576;SDS011;65441;44.748;37.600;2024-03-22T06:12:21;9.82;;;2.88;;
76576;SDS011;65441;44.748;37.600;2024-03-22T06:14:48;9.73;;;3.15;;
76576;SDS011;65441;44.748;37.600;2024-03-22T06:17:16;9.10;;;2.72;;
76576;SDS011;65441;44.748;37.600;2024-03-22T06:19:43;5.93;;;2.13;;
76576;SDS011;65441;44.748;37.600;2024-03-22T06:22:12;8.52;;;2.75;;
76576;SDS011;65441;44.748;37.600;2024-03-22T06:24:39;4.10;;;1.35;;
76576;SDS011;65441;44.748;37.600;2024-03-22T06:27:08;5.05;;;1.80;;
76576;SDS011;65441;44.748;37.600;2024-03-22T06:29:35;5.70;;;2.10;;
76576;SDS011;65441;44.748;37.600;2024-03-22T06:32:04;5.63;;;2.17;;
76576;SDS011;65441;44.748;37.600;2024-03-22T06:36:59;5.40;;;1.90;;
76576;SDS011;65441;44.748;37.600;2024-03-22T06:39:26;6.10;;;2.05;;
76576;SDS011;65441;44.748;37.600;2024-03-22T06:41:54;5.30;;;1.90;;
76576;SDS011;65441;44.748;37.600;2024-03-22T06:44:23;5.57;;;2.20;;
76576;SDS011;65441;44.748;37.600;2024-03-22T06:46:51;6.00;;;2.00;;
76576;SDS011;65441;44.748;37.600;2024-03-22T06:49:18;4.75;;;1.67;;
76576;SDS011;65441;44.748;37.600;2024-03-22T06:51:46;4.68;;;1.98;;
76576;SDS011;65441;44.748;37.600;2024-03-22T06:54:13;5.43;;;1.90;;
76576;SDS011;65441;44.748;37.600;2024-03-22T06:56:41;5.47;;;1.70;;
76576;SDS011;65441;44.748;37.600;2024-03-22T06:59:08;6.05;;;2.00;;
76576;SDS011;65441;44.748;37.600;2024-03-22T07:01:38;14.52;;;1.92;;
76576;SDS011;65441;44.748;37.600;2024-03-22T07:04:05;5.53;;;1.70;;
76576;SDS011;65441;44.748;37.600;2024-03-22T07:06:33;4.47;;;1.77;;
76576;SDS011;65441;44.748;37.600;2024-03-22T07:09:00;5.05;;;1.25;;
76576;SDS011;65441;44.748;37.600;2024-03-22T07:11:29;4.78;;;1.60;;
76576;SDS011;65441;44.748;37.600;2024-03-22T07:13:56;4.45;;;1.58;;
76576;SDS011;65441;44.748;37.600;2024-03-22T07:16:24;5.05;;;1.73;;
76576;SDS011;65441;44.748;37.600;2024-03-22T07:18:52;3.75;;;1.50;;
76576;SDS011;65441;44.748;37.600;2024-03-22T07:21:21;4.93;;;1.75;;
76576;SDS011;65441;44.748;37.600;2024-03-22T07:23:48;4.95;;;1.77;;
76576;SDS011;65441;44.748;37.600;2024-03-22T07:26:16;4.80;;;1.90;;
76576;SDS011;65441;44.748;37.600;2024-03-22T07:28:43;7.88;;;2.10;;
76576;SDS011;65441;44.748;37.600;2024-03-22T07:31:11;5.50;;;2.38;;
76576;SDS011;65441;44.748;37.600;2024-03-22T07:33:38;5.30;;;1.77;;
76576;SDS011;65441;44.748;37.600;2024-03-22T07:36:08;4.82;;;2.03;;
76576;SDS011;65441;44.748;37.600;2024-03-22T07:38:35;6.93;;;2.53;;
76576;SDS011;65441;44.748;37.600;2024-03-22T07:41:04;7.57;;;2.40;;
76576;SDS011;65441;44.748;37.600;2024-03-22T07:43:31;7.88;;;2.50;;
76576;SDS011;65441;44.748;37.600;2024-03-22T07:45:59;5.95;;;2.15;;
76576;SDS011;65441;44.748;37.600;2024-03-22T07:48:26;6.88;;;2.80;;
76576;SDS011;65441;44.748;37.600;2024-03-22T07:50:57;6.03;;;2.30;;
76576;SDS011;65441;44.748;37.600;2024-03-22T07:53:26;8.13;;;2.40;;
76576;SDS011;65441;44.748;37.600;2024-03-22T07:55:55;6.30;;;2.50;;
76576;SDS011;65441;44.748;37.600;2024-03-22T07:58:22;6.10;;;2.25;;
76576;SDS011;65441;44.748;37.600;2024-03-22T08:00:50;6.13;;;2.13;;
76576;SDS011;65441;44.748;37.600;2024-03-22T08:03:17;5.70;;;1.80;;
76576;SDS011;65441;44.748;37.600;2024-03-22T08:05:45;5.30;;;2.17;;
76576;SDS011;65441;44.748;37.600;2024-03-22T08:08:12;6.53;;;2.40;;
76576;SDS011;65441;44.748;37.600;2024-03-22T08:10:42;5.15;;;1.90;;
76576;SDS011;65441;44.748;37.600;2024-03-22T08:13:09;5.05;;;1.90;;
76576;SDS011;65441;44.748;37.600;2024-03-22T08:15:38;4.38;;;1.50;;
76576;SDS011;65441;44.748;37.600;2024-03-22T08:18:05;5.80;;;2.00;;
76576;SDS011;65441;44.748;37.600;2024-03-22T08:20:34;4.65;;;1.70;;
76576;SDS011;65441;44.748;37.600;2024-03-22T08:23:04;6.10;;;2.50;;
76576;SDS011;65441;44.748;37.600;2024-03-22T08:25:33;9.40;;;1.70;;
76576;SDS011;65441;44.748;37.600;2024-03-22T08:28:01;4.68;;;1.52;;
76576;SDS011;65441;44.748;37.600;2024-03-22T08:30:29;4.80;;;1.63;;
76576;SDS011;65441;44.748;37.600;2024-03-22T08:32:56;6.38;;;2.03;;
76576;SDS011;65441;44.748;37.600;2024-03-22T08:35:25;4.15;;;1.48;;
76576;SDS011;65441;44.748;37.600;2024-03-22T08:37:52;4.22;;;1.67;;
76576;SDS011;65441;44.748;37.600;2024-03-22T08:40:20;5.50;;;1.73;;
76576;SDS011;65441;44.748;37.600;2024-03-22T08:42:47;6.13;;;1.92;;
76576;SDS011;65441;44.748;37.600;2024-03-22T08:45:17;4.55;;;1.50;;
76576;SDS011;65441;44.748;37.600;2024-03-22T08:47:44;6.70;;;2.10;;
76576;SDS011;65441;44.748;37.600;2024-03-22T08:50:13;4.97;;;1.67;;
76576;SDS011;65441;44.748;37.600;2024-03-22T08:52:40;4.88;;;2.08;;
76576;SDS011;65441;44.748;37.600;2024-03-22T08:55:08;6.93;;;1.90;;
76576;SDS011;65441;44.748;37.600;2024-03-22T08:57:36;6.07;;;2.30;;
76576;SDS011;65441;44.748;37.600;2024-03-22T09:00:05;5.68;;;2.13;;
76576;SDS011;65441;44.748;37.600;2024-03-22T09:02:35;7.10;;;1.98;;
76576;SDS011;65441;44.748;37.600;2024-03-22T09:05:04;6.25;;;2.33;;
76576;SDS011;65441;44.748;37.600;2024-03-22T09:07:32;6.50;;;1.98;;
76576;SDS011;65441;44.748;37.600;2024-03-22T09:10:00;5.43;;;1.90;;
76576;SDS011;65441;44.748;37.600;2024-03-22T09:12:27;7.05;;;2.05;;
76576;SDS011;65441;44.748;37.600;2024-03-22T09:14:55;5.60;;;1.70;;
76576;SDS011;65441;44.748;37.600;2024-03-22T09:17:22;3.90;;;1.20;;
76576;SDS011;65441;44.748;37.600;2024-03-22T09:19:51;5.05;;;1.65;;
76576;SDS011;65441;44.748;37.600;2024-03-22T09:22:18;4.55;;;1.50;;
76576;SDS011;65441;44.748;37.600;2024-03-22T09:24:46;5.72;;;2.10;;
76576;SDS011;65441;44.748;37.600;2024-03-22T09:27:13;6.97;;;2.30;;
76576;SDS011;65441;44.748;37.600;2024-03-22T09:29:42;7.40;;;2.55;;
76576;SDS011;65441;44.748;37.600;2024-03-22T09:32:09;5.38;;;2.00;;
76576;SDS011;65441;44.748;37.600;2024-03-22T09:34:37;7.47;;;2.38;;
76576;SDS011;65441;44.748;37.600;2024-03-22T09:37:07;6.78;;;2.22;;
76576;SDS011;65441;44.748;37.600;2024-03-22T09:39:35;6.70;;;2.13;;
76576;SDS011;65441;44.748;37.600;2024-03-22T09:42:03;5.60;;;1.73;;
76576;SDS011;65441;44.748;37.600;2024-03-22T09:44:32;7.50;;;2.47;;
76576;SDS011;65441;44.748;37.600;2024-03-22T09:47:00;8.38;;;2.90;;
76576;SDS011;65441;44.748;37.600;2024-03-22T09:49:28;7.78;;;3.38;;
76576;SDS011;65441;44.748;37.600;2024-03-22T09:51:56;8.57;;;3.35;;
76576;SDS011;65441;44.748;37.600;2024-03-22T09:54:25;10.85;;;4.25;;
76576;SDS011;65441;44.748;37.600;2024-03-22T09:56:53;10.32;;;4.15;;
76576;SDS011;65441;44.748;37.600;2024-03-22T09:59:22;8.48;;;3.70;;
76576;SDS011;65441;44.748;37.600;2024-03-22T10:01:51;8.85;;;3.75;;
76576;SDS011;65441;44.748;37.600;2024-03-22T10:04:19;11.32;;;4.30;;
76576;SDS011;65441;44.748;37.600;2024-03-22T10:06:47;10.85;;;4.60;;
76576;SDS011;65441;44.748;37.600;2024-03-22T10:09:15;10.75;;;4.32;;
76576;SDS011;65441;44.748;37.600;2024-03-22T10:11:45;10.77;;;3.90;;
76576;SDS011;65441;44.748;37.600;2024-03-22T10:14:13;9.77;;;4.45;;
76576;SDS011;65441;44.748;37.600;2024-03-22T10:16:41;11.07;;;4.60;;
76576;SDS011;65441;44.748;37.600;2024-03-22T10:19:08;10.27;;;3.58;;
76576;SDS011;65441;44.748;37.600;2024-03-22T10:21:37;14.02;;;3.95;;
76576;SDS011;65441;44.748;37.600;2024-03-22T10:24:04;11.02;;;4.43;;
76576;SDS011;65441;44.748;37.600;2024-03-22T10:26:33;10.13;;;3.55;;
76576;SDS011;65441;44.748;37.600;2024-03-22T10:29:02;10.02;;;3.60;;
76576;SDS011;65441;44.748;37.600;2024-03-22T10:31:34;11.00;;;4.20;;
76576;SDS011;65441;44.748;37.600;2024-03-22T10:34:02;10.18;;;3.42;;
76576;SDS011;65441;44.748;37.600;2024-03-22T10:36:31;13.43;;;3.70;;
76576;SDS011;65441;44.748;37.600;2024-03-22T10:38:59;11.07;;;3.35;;
76576;SDS011;65441;44.748;37.600;2024-03-22T10:41:30;7.82;;;3.67;;
76576;SDS011;65441;44.748;37.600;2024-03-22T10:43:57;13.73;;;3.72;;
76576;SDS011;65441;44.748;37.600;2024-03-22T10:46:28;9.65;;;3.35;;
76576;SDS011;65441;44.748;37.600;2024-03-22T10:48:57;9.80;;;4.03;;
76576;SDS011;65441;44.748;37.600;2024-03-22T10:51:25;11.77;;;3.53;;
76576;SDS011;65441;44.748;37.600;2024-03-22T10:53:53;9.30;;;3.38;;
76576;SDS011;65441;44.748;37.600;2024-03-22T10:56:23;8.43;;;3.03;;
76576;SDS011;65441;44.748;37.600;2024-03-22T10:58:51;8.68;;;3.13;;
76576;SDS011;65441;44.748;37.600;2024-03-22T11:01:23;10.15;;;3.55;;
76576;SDS011;65441;44.748;37.600;2024-03-22T11:03:52;10.23;;;3.47;;
76576;SDS011;65441;44.748;37.600;2024-03-22T11:06:32;10.45;;;3.33;;
76576;SDS011;65441;44.748;37.600;2024-03-22T11:08:59;9.88;;;2.60;;
76576;SDS011;65441;44.748;37.600;2024-03-22T11:11:30;8.82;;;2.80;;
76576;SDS011;65441;44.748;37.600;2024-03-22T11:13:59;9.48;;;2.58;;
76576;SDS011;65441;44.748;37.600;2024-03-22T11:16:27;9.70;;;2.90;;
76576;SDS011;65441;44.748;37.600;2024-03-22T11:18:56;10.52;;;3.00;;
76576;SDS011;65441;44.748;37.600;2024-03-22T11:21:24;10.15;;;2.95;;
76576;SDS011;65441;44.748;37.600;2024-03-22T11:23:51;10.43;;;3.22;;
76576;SDS011;65441;44.748;37.600;2024-03-22T11:26:19;10.18;;;3.72;;
76576;SDS011;65441;44.748;37.600;2024-03-22T11:28:46;9.77;;;3.20;;
76576;SDS011;65441;44.748;37.600;2024-03-22T11:31:14;12.68;;;3.60;;
76576;SDS011;65441;44.748;37.600;2024-03-22T11:33:41;8.45;;;3.33;;
76576;SDS011;65441;44.748;37.600;2024-03-22T11:36:13;7.32;;;2.50;;
76576;SDS011;65441;44.748;37.600;2024-03-22T11:38:40;9.90;;;3.40;;
76576;SDS011;65441;44.748;37.600;2024-03-22T11:41:10;9.75;;;3.40;;
76576;SDS011;65441;44.748;37.600;2024-03-22T11:43:42;6.50;;;2.25;;
76576;SDS011;65441;44.748;37.600;2024-03-22T11:46:12;10.00;;;3.17;;
76576;SDS011;65441;44.748;37.600;2024-03-22T11:48:40;6.88;;;2.65;;
76576;SDS011;65441;44.748;37.600;2024-03-22T11:51:09;10.82;;;3.35;;
76576;SDS011;65441;44.748;37.600;2024-03-22T11:53:37;7.82;;;2.63;;
76576;SDS011;65441;44.748;37.600;2024-03-22T11:56:06;7.28;;;2.92;;
76576;SDS011;65441;44.748;37.600;2024-03-22T11:58:35;12.45;;;3.20;;
76576;SDS011;65441;44.748;37.600;2024-03-22T12:01:03;9.23;;;2.70;;
76576;SDS011;65441;44.748;37.600;2024-03-22T12:03:30;8.27;;;2.80;;
76576;SDS011;65441;44.748;37.600;2024-03-22T12:05:58;7.10;;;2.70;;
76576;SDS011;65441;44.748;37.600;2024-03-22T12:08:25;7.68;;;2.58;;
76576;SDS011;65441;44.748;37.600;2024-03-22T12:10:55;7.30;;;2.47;;
76576;SDS011;65441;44.748;37.600;2024-03-22T12:13:22;8.13;;;2.83;;
76576;SDS011;65441;44.748;37.600;2024-03-22T12:15:50;10.25;;;3.20;;
76576;SDS011;65441;44.748;37.600;2024-03-22T12:18:17;9.27;;;3.33;;
76576;SDS011;65441;44.748;37.600;2024-03-22T12:20:45;12.68;;;3.13;;
76576;SDS011;65441;44.748;37.600;2024-03-22T12:23:12;13.13;;;3.22;;
76576;SDS011;65441;44.748;37.600;2024-03-22T12:25:40;8.98;;;3.00;;
76576;SDS011;65441;44.748;37.600;2024-03-22T12:28:08;7.05;;;2.38;;
76576;SDS011;65441;44.748;37.600;2024-03-22T12:30:36;7.93;;;3.00;;
76576;SDS011;65441;44.748;37.600;2024-03-22T12:33:03;7.43;;;2.83;;
76576;SDS011;65441;44.748;37.600;2024-03-22T12:35:36;7.53;;;2.70;;
76576;SDS011;65441;44.748;37.600;2024-03-22T12:38:03;8.52;;;2.85;;
76576;SDS011;65441;44.748;37.600;2024-03-22T12:40:32;8.13;;;2.78;;
76576;SDS011;65441;44.748;37.600;2024-03-22T12:42:59;8.10;;;2.60;;
76576;SDS011;65441;44.748;37.600;2024-03-22T12:45:28;8.68;;;2.95;;
76576;SDS011;65441;44.748;37.600;2024-03-22T12:47:56;7.63;;;2.58;;
76576;SDS011;65441;44.748;37.600;2024-03-22T12:50:24;6.75;;;2.40;;
76576;SDS011;65441;44.748;37.600;2024-03-22T12:52:52;8.90;;;3.72;;
76576;SDS011;65441;44.748;37.600;2024-03-22T12:55:20;10.80;;;3.67;;
76576;SDS011;65441;44.748;37.600;2024-03-22T12:57:47;10.60;;;3.42;;
76576;SDS011;65441;44.748;37.600;2024-03-22T13:00:15;13.13;;;4.43;;
76576;SDS011;65441;44.748;37.600;2024-03-22T13:02:46;11.27;;;4.32;;
76576;SDS011;65441;44.748;37.600;2024-03-22T13:05:14;4.53;;;1.88;;
76576;SDS011;65441;44.748;37.600;2024-03-22T13:07:41;8.10;;;2.35;;
76576;SDS011;65441;44.748;37.600;2024-03-22T13:10:09;10.68;;;3.55;;
76576;SDS011;65441;44.748;37.600;2024-03-22T13:12:36;8.07;;;3.03;;
76576;SDS011;65441;44.748;37.600;2024-03-22T13:15:04;10.07;;;3.75;;
76576;SDS011;65441;44.748;37.600;2024-03-22T13:17:32;11.00;;;3.95;;
76576;SDS011;65441;44.748;37.600;2024-03-22T13:20:01;10.45;;;3.70;;
76576;SDS011;65441;44.748;37.600;2024-03-22T13:22:36;10.18;;;3.40;;
76576;SDS011;65441;44.748;37.600;2024-03-22T13:25:05;9.05;;;3.35;;
76576;SDS011;65441;44.748;37.600;2024-03-22T13:27:33;10.07;;;3.97;;
76576;SDS011;65441;44.748;37.600;2024-03-22T13:30:01;10.30;;;3.70;;
76576;SDS011;65441;44.748;37.600;2024-03-22T13:32:29;11.82;;;3.47;;
76576;SDS011;65441;44.748;37.600;2024-03-22T13:34:57;9.27;;;3.20;;
76576;SDS011;65441;44.748;37.600;2024-03-22T13:37:26;8.27;;;2.85;;
76576;SDS011;65441;44.748;37.600;2024-03-22T13:39:54;8.40;;;3.05;;
76576;SDS011;65441;44.748;37.600;2024-03-22T13:42:21;8.75;;;3.92;;
76576;SDS011;65441;44.748;37.600;2024-03-22T13:44:49;8.35;;;3.35;;
76576;SDS011;65441;44.748;37.600;2024-03-22T13:47:17;10.68;;;3.97;;
76576;SDS011;65441;44.748;37.600;2024-03-22T13:49:45;10.93;;;3.53;;
76576;SDS011;65441;44.748;37.600;2024-03-22T13:52:12;10.20;;;3.35;;
76576;SDS011;65441;44.748;37.600;2024-03-22T13:54:42;10.05;;;3.72;;
76576;SDS011;65441;44.748;37.600;2024-03-22T13:57:09;9.77;;;4.38;;
76576;SDS011;65441;44.748;37.600;2024-03-22T13:59:37;12.13;;;4.32;;
76576;SDS011;65441;44.748;37.600;2024-03-22T14:02:05;9.82;;;4.22;;
76576;SDS011;65441;44.748;37.600;2024-03-22T14:04:34;9.82;;;3.95;;
76576;SDS011;65441;44.748;37.600;2024-03-22T14:07:02;11.68;;;4.63;;
76576;SDS011;65441;44.748;37.600;2024-03-22T14:09:30;10.23;;;4.13;;
76576;SDS011;65441;44.748;37.600;2024-03-22T14:11:59;10.27;;;4.10;;
76576;SDS011;65441;44.748;37.600;2024-03-22T14:14:27;11.90;;;4.47;;
76576;SDS011;65441;44.748;37.600;2024-03-22T14:16:54;9.68;;;3.58;;
76576;SDS011;65441;44.748;37.600;2024-03-22T14:19:23;12.60;;;4.50;;
76576;SDS011;65441;44.748;37.600;2024-03-22T14:21:50;11.48;;;3.58;;
76576;SDS011;65441;44.748;37.600;2024-03-22T14:24:18;14.32;;;3.30;;
76576;SDS011;65441;44.748;37.600;2024-03-22T14:26:45;8.48;;;2.75;;
76576;SDS011;65441;44.748;37.600;2024-03-22T14:29:15;8.93;;;2.78;;
76576;SDS011;65441;44.748;37.600;2024-03-22T14:31:42;10.98;;;3.15;;
76576;SDS011;65441;44.748;37.600;2024-03-22T14:34:11;10.85;;;3.53;;
76576;SDS011;65441;44.748;37.600;2024-03-22T14:36:38;10.85;;;3.72;;
76576;SDS011;65441;44.748;37.600;2024-03-22T14:39:07;8.60;;;3.53;;
76576;SDS011;65441;44.748;37.600;2024-03-22T14:41:34;9.25;;;3.38;;
76576;SDS011;65441;44.748;37.600;2024-03-22T14:44:02;8.45;;;3.33;;